PWSweather.com
Personal Weather Stations
Station Observations
ILAZIOPO4
Tetto, PomeziaIT 00040

TettoPomeziaIT 00040

Lat: 41.6674809, Lon: 12.5080234

Elevation: 85

Station Type: Davis Vantage Pro2 Plus

http://pomeziameteo.it

Latest ConditionsUpdated 10:10:05 AM GMT+01:01 Thursday, Dec 12, 2019
Currently Today's Max Today's Min Today's Average
Temperature 48.5°F9.2°C 48.5°F9.2°C 42.0°F5.6°C 44.4°F6.9°C
Dew Point 39.5°F4.2°C 39.6°F4.2°C 32.5°F0.3°C 36.1°F2.3°C
Winds 2.0 mph SE3.2 kmh SE 7.0 mph -11.3 kmh - - 1.7 mph 2.7 kmh
Wind Gusts 7.0 mph11.3 kmh 8.0 mph12.9 kmh - -
Humidity 71% 78% 61% 73%
Pressure 29.66 in1004.4 mb 29.75 in1007.5 mb 29.64 in1003.7 mb -
Hour Temp Dew Point Humidity Winds Wind Gusts Pressure Precip Precip Rate Daily Precip Total
10:10 AM 48.5°F9.2°C 39.5°F4.2°C 71% 2.0 mph SE3.2 kmh SE 7.0 mph11.3 kmh 29.66 in1004.4 mb 0.00 in0.0 mm 0.00 in0.0 mm 0.00 in0.0 mm
10:05 AM 48.3°F9.1°C 39.3°F4.1°C 71% 2.0 mph SE3.2 kmh SE 5.0 mph8.0 kmh 29.66 in1004.4 mb 0.00 in0.0 mm 0.00 in0.0 mm 0.00 in0.0 mm
10:00 AM 48.2°F9.0°C 39.2°F4.0°C 71% 2.0 mph SSE3.2 kmh SSE 4.0 mph6.4 kmh 29.66 in1004.4 mb 0.00 in0.0 mm 0.00 in0.0 mm 0.00 in0.0 mm
09:55 AM 48.2°F9.0°C 39.6°F4.2°C 72% 3.0 mph SSE4.8 kmh SSE 3.0 mph4.8 kmh 29.66 in1004.4 mb 0.00 in0.0 mm 0.00 in0.0 mm 0.00 in0.0 mm
09:50 AM 48.1°F8.9°C 39.5°F4.2°C 72% 2.0 mph ESE3.2 kmh ESE 5.0 mph8.0 kmh 29.66 in1004.4 mb 0.00 in0.0 mm 0.00 in0.0 mm 0.00 in0.0 mm
09:45 AM 48.0°F8.9°C 39.4°F4.1°C 72% 1.0 mph SE1.6 kmh SE 4.0 mph6.4 kmh 29.66 in1004.4 mb 0.00 in0.0 mm 0.00 in0.0 mm 0.00 in0.0 mm
09:40 AM 47.9°F8.8°C 39.3°F4.1°C 72% 1.0 mph SE1.6 kmh SE 5.0 mph8.0 kmh 29.66 in1004.4 mb 0.00 in0.0 mm 0.00 in0.0 mm 0.00 in0.0 mm
09:35 AM 47.9°F8.8°C 39.6°F4.2°C 73% 5.0 mph SE8.0 kmh SE 8.0 mph12.9 kmh 29.66 in1004.4 mb 0.00 in0.0 mm 0.00 in0.0 mm 0.00 in0.0 mm
09:30 AM 47.8°F8.8°C 39.5°F4.2°C 73% 7.0 mph SE11.3 kmh SE 7.0 mph11.3 kmh 29.66 in1004.4 mb 0.00 in0.0 mm 0.00 in0.0 mm 0.00 in0.0 mm
09:25 AM 47.8°F8.8°C 39.5°F4.2°C 73% 5.0 mph SE8.0 kmh SE 8.0 mph12.9 kmh 29.66 in1004.4 mb 0.00 in0.0 mm 0.00 in0.0 mm 0.00 in0.0 mm
09:20 AM 47.8°F8.8°C 39.2°F4.0°C 72% Calm Calm 4.0 mph6.4 kmh 29.66 in1004.4 mb 0.00 in0.0 mm 0.00 in0.0 mm 0.00 in0.0 mm
09:15 AM 47.7°F8.7°C 39.1°F3.9°C 72% 3.0 mph ESE4.8 kmh ESE 4.0 mph6.4 kmh 29.66 in1004.4 mb 0.00 in0.0 mm 0.00 in0.0 mm 0.00 in0.0 mm
09:10 AM 47.6°F8.7°C 39.3°F4.1°C 73% 1.0 mph E1.6 kmh E 3.0 mph4.8 kmh 29.66 in1004.4 mb 0.00 in0.0 mm 0.00 in0.0 mm 0.00 in0.0 mm
09:05 AM 47.4°F8.6°C 39.1°F3.9°C 73% 2.0 mph E3.2 kmh E 3.0 mph4.8 kmh 29.66 in1004.4 mb 0.00 in0.0 mm 0.00 in0.0 mm 0.00 in0.0 mm
09:00 AM 47.2°F8.4°C 38.9°F3.8°C 73% 1.0 mph ESE1.6 kmh ESE 3.0 mph4.8 kmh 29.66 in1004.4 mb 0.00 in0.0 mm 0.00 in0.0 mm 0.00 in0.0 mm
08:55 AM 47.0°F8.3°C 39.1°F3.9°C 74% Calm Calm 3.0 mph4.8 kmh 29.66 in1004.4 mb 0.00 in0.0 mm 0.00 in0.0 mm 0.00 in0.0 mm
08:50 AM 46.8°F8.2°C 38.9°F3.8°C 74% 1.0 mph ESE1.6 kmh ESE 3.0 mph4.8 kmh 29.66 in1004.4 mb 0.00 in0.0 mm 0.00 in0.0 mm 0.00 in0.0 mm
08:45 AM 46.7°F8.2°C 38.8°F3.8°C 74% Calm Calm 2.0 mph3.2 kmh 29.65 in1004.1 mb 0.00 in0.0 mm 0.00 in0.0 mm 0.00 in0.0 mm
08:40 AM 46.6°F8.1°C 38.7°F3.7°C 74% 2.0 mph ESE3.2 kmh ESE 4.0 mph6.4 kmh 29.65 in1004.1 mb 0.00 in0.0 mm 0.00 in0.0 mm 0.00 in0.0 mm
08:35 AM 46.5°F8.1°C 38.6°F3.7°C 74% 2.0 mph E3.2 kmh E 4.0 mph6.4 kmh 29.65 in1004.1 mb 0.00 in0.0 mm 0.00 in0.0 mm 0.00 in0.0 mm
08:30 AM 46.4°F8.0°C 38.5°F3.6°C 74% 3.0 mph E4.8 kmh E 4.0 mph6.4 kmh 29.65 in1004.1 mb 0.00 in0.0 mm 0.00 in0.0 mm 0.00 in0.0 mm
08:25 AM 46.4°F8.0°C 38.5°F3.6°C 74% 3.0 mph SE4.8 kmh SE 3.0 mph4.8 kmh 29.65 in1004.1 mb 0.00 in0.0 mm 0.00 in0.0 mm 0.00 in0.0 mm
08:20 AM 46.3°F7.9°C 38.8°F3.8°C 75% 3.0 mph E4.8 kmh E 4.0 mph6.4 kmh 29.65 in1004.1 mb 0.00 in0.0 mm 0.00 in0.0 mm 0.00 in0.0 mm
08:15 AM 46.2°F7.9°C 38.7°F3.7°C 75% 4.0 mph ESE6.4 kmh ESE 4.0 mph6.4 kmh 29.65 in1004.1 mb 0.00 in0.0 mm 0.00 in0.0 mm 0.00 in0.0 mm
08:10 AM 46.2°F7.9°C 38.7°F3.7°C 75% 6.0 mph ESE9.7 kmh ESE 6.0 mph9.7 kmh 29.65 in1004.1 mb 0.00 in0.0 mm 0.00 in0.0 mm 0.00 in0.0 mm
08:05 AM 46.2°F7.9°C 38.3°F3.5°C 74% 2.0 mph SE3.2 kmh SE 4.0 mph6.4 kmh 29.65 in1004.1 mb 0.00 in0.0 mm 0.00 in0.0 mm 0.00 in0.0 mm
08:00 AM 46.2°F7.9°C 38.3°F3.5°C 74% 3.0 mph ESE4.8 kmh ESE 6.0 mph9.7 kmh 29.65 in1004.1 mb 0.00 in0.0 mm 0.00 in0.0 mm 0.00 in0.0 mm
07:55 AM 46.1°F7.8°C 38.2°F3.4°C 74% 4.0 mph ESE6.4 kmh ESE 6.0 mph9.7 kmh 29.65 in1004.1 mb 0.00 in0.0 mm 0.00 in0.0 mm 0.00 in0.0 mm
07:50 AM 45.9°F7.7°C 38.4°F3.6°C 75% 4.0 mph SE6.4 kmh SE 7.0 mph11.3 kmh 29.65 in1004.1 mb 0.00 in0.0 mm 0.00 in0.0 mm 0.00 in0.0 mm
07:45 AM 45.6°F7.6°C 38.1°F3.4°C 75% 3.0 mph SE4.8 kmh SE 5.0 mph8.0 kmh 29.65 in1004.1 mb 0.00 in0.0 mm 0.00 in0.0 mm 0.00 in0.0 mm
07:40 AM 45.5°F7.5°C 38.0°F3.3°C 75% 3.0 mph SE4.8 kmh SE 4.0 mph6.4 kmh 29.65 in1004.1 mb 0.00 in0.0 mm 0.00 in0.0 mm 0.00 in0.0 mm
07:35 AM 45.4°F7.4°C 37.9°F3.3°C 75% 4.0 mph ESE6.4 kmh ESE 6.0 mph9.7 kmh 29.65 in1004.1 mb 0.00 in0.0 mm 0.00 in0.0 mm 0.00 in0.0 mm
07:30 AM 45.2°F7.3°C 37.7°F3.2°C 75% 2.0 mph ESE3.2 kmh ESE 6.0 mph9.7 kmh 29.65 in1004.1 mb 0.00 in0.0 mm 0.00 in0.0 mm 0.00 in0.0 mm
07:25 AM 45.2°F7.3°C 37.4°F3.0°C 74% 4.0 mph SE6.4 kmh SE 5.0 mph8.0 kmh 29.65 in1004.1 mb 0.00 in0.0 mm 0.00 in0.0 mm 0.00 in0.0 mm
07:20 AM 45.3°F7.4°C 37.5°F3.1°C 74% 3.0 mph ESE4.8 kmh ESE 6.0 mph9.7 kmh 29.65 in1004.1 mb 0.00 in0.0 mm 0.00 in0.0 mm 0.00 in0.0 mm
07:15 AM 45.2°F7.3°C 37.4°F3.0°C 74% 3.0 mph ESE4.8 kmh ESE 6.0 mph9.7 kmh 29.65 in1004.1 mb 0.00 in0.0 mm 0.00 in0.0 mm 0.00 in0.0 mm
07:10 AM 45.1°F7.3°C 37.3°F2.9°C 74% 2.0 mph SE3.2 kmh SE 3.0 mph4.8 kmh 29.65 in1004.1 mb 0.00 in0.0 mm 0.00 in0.0 mm 0.00 in0.0 mm
07:05 AM 45.2°F7.3°C 37.4°F3.0°C 74% 1.0 mph SE1.6 kmh SE 3.0 mph4.8 kmh 29.65 in1004.1 mb 0.00 in0.0 mm 0.00 in0.0 mm 0.00 in0.0 mm
07:00 AM 45.3°F7.4°C 37.1°F2.8°C 73% 2.0 mph SE3.2 kmh SE 4.0 mph6.4 kmh 29.65 in1004.1 mb 0.00 in0.0 mm 0.00 in0.0 mm 0.00 in0.0 mm
06:55 AM 45.2°F7.3°C 37.0°F2.8°C 73% 4.0 mph SE6.4 kmh SE 5.0 mph8.0 kmh 29.65 in1004.1 mb 0.00 in0.0 mm 0.00 in0.0 mm 0.00 in0.0 mm
06:50 AM 45.1°F7.3°C 36.9°F2.7°C 73% 1.0 mph SE1.6 kmh SE 5.0 mph8.0 kmh 29.65 in1004.1 mb 0.00 in0.0 mm 0.00 in0.0 mm 0.00 in0.0 mm
06:45 AM 44.9°F7.2°C 36.7°F2.6°C 73% 3.0 mph SE4.8 kmh SE 4.0 mph6.4 kmh 29.65 in1004.1 mb 0.00 in0.0 mm 0.00 in0.0 mm 0.00 in0.0 mm
06:40 AM 44.8°F7.1°C 36.6°F2.6°C 73% 2.0 mph SE3.2 kmh SE 3.0 mph4.8 kmh 29.65 in1004.1 mb 0.00 in0.0 mm 0.00 in0.0 mm 0.00 in0.0 mm
06:35 AM 44.6°F7.0°C 36.4°F2.4°C 73% 2.0 mph ESE3.2 kmh ESE 4.0 mph6.4 kmh 29.64 in1003.7 mb 0.00 in0.0 mm 0.00 in0.0 mm 0.00 in0.0 mm
06:30 AM 44.6°F7.0°C 36.4°F2.4°C 73% 2.0 mph ESE3.2 kmh ESE 4.0 mph6.4 kmh 29.65 in1004.1 mb 0.00 in0.0 mm 0.00 in0.0 mm 0.00 in0.0 mm
06:25 AM 44.4°F6.9°C 35.9°F2.2°C 72% 1.0 mph SE1.6 kmh SE 4.0 mph6.4 kmh 29.65 in1004.1 mb 0.00 in0.0 mm 0.00 in0.0 mm 0.00 in0.0 mm
06:20 AM 44.3°F6.8°C 35.1°F1.7°C 70% 2.0 mph SE3.2 kmh SE 3.0 mph4.8 kmh 29.65 in1004.1 mb 0.00 in0.0 mm 0.00 in0.0 mm 0.00 in0.0 mm
06:15 AM 44.3°F6.8°C 34.4°F1.3°C 68% 1.0 mph SE1.6 kmh SE 3.0 mph4.8 kmh 29.65 in1004.1 mb 0.00 in0.0 mm 0.00 in0.0 mm 0.00 in0.0 mm
06:10 AM 44.4°F6.9°C 34.1°F1.2°C 67% 2.0 mph SE3.2 kmh SE 3.0 mph4.8 kmh 29.64 in1003.7 mb 0.00 in0.0 mm 0.00 in0.0 mm 0.00 in0.0 mm
06:05 AM 44.6°F7.0°C 33.9°F1.1°C 66% 3.0 mph SE4.8 kmh SE 4.0 mph6.4 kmh 29.65 in1004.1 mb 0.00 in0.0 mm 0.00 in0.0 mm 0.00 in0.0 mm
06:00 AM 44.9°F7.2°C 33.8°F1.0°C 65% 2.0 mph SE3.2 kmh SE 4.0 mph6.4 kmh 29.65 in1004.1 mb 0.00 in0.0 mm 0.00 in0.0 mm 0.00 in0.0 mm
05:55 AM 45.2°F7.3°C 33.3°F0.7°C 63% 2.0 mph SE3.2 kmh SE 4.0 mph6.4 kmh 29.65 in1004.1 mb 0.00 in0.0 mm 0.00 in0.0 mm 0.00 in0.0 mm
05:50 AM 45.3°F7.4°C 33.4°F0.8°C 63% 3.0 mph E4.8 kmh E 3.0 mph4.8 kmh 29.65 in1004.1 mb 0.00 in0.0 mm 0.00 in0.0 mm 0.00 in0.0 mm
05:45 AM 45.4°F7.4°C 33.1°F0.6°C 62% 2.0 mph E3.2 kmh E 4.0 mph6.4 kmh 29.65 in1004.1 mb 0.00 in0.0 mm 0.00 in0.0 mm 0.00 in0.0 mm
05:40 AM 45.4°F7.4°C 32.7°F0.4°C 61% 2.0 mph ENE3.2 kmh ENE 3.0 mph4.8 kmh 29.65 in1004.1 mb 0.00 in0.0 mm 0.00 in0.0 mm 0.00 in0.0 mm
05:35 AM 45.2°F7.3°C 32.5°F0.3°C 61% 2.0 mph NE3.2 kmh NE 3.0 mph4.8 kmh 29.65 in1004.1 mb 0.00 in0.0 mm 0.00 in0.0 mm 0.00 in0.0 mm
05:30 AM 45.1°F7.3°C 32.8°F0.4°C 62% 1.0 mph NE1.6 kmh NE 2.0 mph3.2 kmh 29.65 in1004.1 mb 0.00 in0.0 mm 0.00 in0.0 mm 0.00 in0.0 mm
05:25 AM 45.2°F7.3°C 33.3°F0.7°C 63% Calm Calm 2.0 mph3.2 kmh 29.65 in1004.1 mb 0.00 in0.0 mm 0.00 in0.0 mm 0.00 in0.0 mm
05:20 AM 45.1°F7.3°C 33.6°F0.9°C 64% 1.0 mph NE1.6 kmh NE 2.0 mph3.2 kmh 29.65 in1004.1 mb 0.00 in0.0 mm 0.00 in0.0 mm 0.00 in0.0 mm
05:15 AM 45.0°F7.2°C 33.9°F1.1°C 65% Calm Calm 2.0 mph3.2 kmh 29.65 in1004.1 mb 0.00 in0.0 mm 0.00 in0.0 mm 0.00 in0.0 mm
05:10 AM 44.9°F7.2°C 33.8°F1.0°C 65% 2.0 mph NE3.2 kmh NE 4.0 mph6.4 kmh 29.65 in1004.1 mb 0.00 in0.0 mm 0.00 in0.0 mm 0.00 in0.0 mm
05:05 AM 44.4°F6.9°C 34.1°F1.2°C 67% 1.0 mph NE1.6 kmh NE 1.0 mph1.6 kmh 29.66 in1004.4 mb 0.00 in0.0 mm 0.00 in0.0 mm 0.00 in0.0 mm
05:00 AM 44.1°F6.7°C 34.2°F1.2°C 68% Calm Calm 1.0 mph1.6 kmh 29.66 in1004.4 mb 0.00 in0.0 mm 0.00 in0.0 mm 0.00 in0.0 mm
04:55 AM 43.9°F6.6°C 34.7°F1.5°C 70% 1.0 mph NE1.6 kmh NE 2.0 mph3.2 kmh 29.66 in1004.4 mb 0.00 in0.0 mm 0.00 in0.0 mm 0.00 in0.0 mm
04:50 AM 43.5°F6.4°C 34.7°F1.5°C 71% 1.0 mph NE1.6 kmh NE 3.0 mph4.8 kmh 29.66 in1004.4 mb 0.00 in0.0 mm 0.00 in0.0 mm 0.00 in0.0 mm
04:45 AM 43.1°F6.2°C 35.0°F1.7°C 73% 1.0 mph NE1.6 kmh NE 3.0 mph4.8 kmh 29.66 in1004.4 mb 0.00 in0.0 mm 0.00 in0.0 mm 0.00 in0.0 mm
04:40 AM 42.8°F6.0°C 35.0°F1.7°C 74% 2.0 mph NW3.2 kmh NW 3.0 mph4.8 kmh 29.66 in1004.4 mb 0.00 in0.0 mm 0.00 in0.0 mm 0.00 in0.0 mm
04:35 AM 42.6°F5.9°C 34.9°F1.6°C 74% 1.0 mph NW1.6 kmh NW 2.0 mph3.2 kmh 29.67 in1004.7 mb 0.00 in0.0 mm 0.00 in0.0 mm 0.00 in0.0 mm
04:30 AM 42.6°F5.9°C 34.9°F1.6°C 74% Calm Calm 2.0 mph3.2 kmh 29.67 in1004.7 mb 0.00 in0.0 mm 0.00 in0.0 mm 0.00 in0.0 mm
04:25 AM 42.6°F5.9°C 34.9°F1.6°C 74% 1.0 mph NW1.6 kmh NW 3.0 mph4.8 kmh 29.67 in1004.7 mb 0.00 in0.0 mm 0.00 in0.0 mm 0.00 in0.0 mm
04:20 AM 42.8°F6.0°C 35.0°F1.7°C 74% 3.0 mph NW4.8 kmh NW 4.0 mph6.4 kmh 29.67 in1004.7 mb 0.00 in0.0 mm 0.00 in0.0 mm 0.00 in0.0 mm
04:15 AM 43.1°F6.2°C 35.0°F1.7°C 73% 1.0 mph WNW1.6 kmh WNW 2.0 mph3.2 kmh 29.68 in1005.1 mb 0.00 in0.0 mm 0.00 in0.0 mm 0.00 in0.0 mm
04:10 AM 43.5°F6.4°C 35.0°F1.7°C 72% 1.0 mph WNW1.6 kmh WNW 2.0 mph3.2 kmh 29.68 in1005.1 mb 0.00 in0.0 mm 0.00 in0.0 mm 0.00 in0.0 mm
04:05 AM 43.8°F6.6°C 35.0°F1.7°C 71% 1.0 mph WNW1.6 kmh WNW 2.0 mph3.2 kmh 29.68 in1005.1 mb 0.00 in0.0 mm 0.00 in0.0 mm 0.00 in0.0 mm
04:00 AM 44.3°F6.8°C 35.1°F1.7°C 70% 1.0 mph WNW1.6 kmh WNW 2.0 mph3.2 kmh 29.68 in1005.1 mb 0.00 in0.0 mm 0.00 in0.0 mm 0.00 in0.0 mm
03:55 AM 44.5°F6.9°C 34.9°F1.6°C 69% 2.0 mph WNW3.2 kmh WNW 3.0 mph4.8 kmh 29.69 in1005.4 mb 0.00 in0.0 mm 0.00 in0.0 mm 0.00 in0.0 mm
03:50 AM 44.7°F7.1°C 35.1°F1.7°C 69% 1.0 mph WNW1.6 kmh WNW 2.0 mph3.2 kmh 29.69 in1005.4 mb 0.00 in0.0 mm 0.00 in0.0 mm 0.00 in0.0 mm
03:45 AM 44.7°F7.1°C 35.5°F1.9°C 70% 1.0 mph WNW1.6 kmh WNW 2.0 mph3.2 kmh 29.69 in1005.4 mb 0.00 in0.0 mm 0.00 in0.0 mm 0.00 in0.0 mm
03:40 AM 44.5°F6.9°C 36.0°F2.2°C 72% 1.0 mph WNW1.6 kmh WNW 1.0 mph1.6 kmh 29.70 in1005.8 mb 0.00 in0.0 mm 0.00 in0.0 mm 0.00 in0.0 mm
03:35 AM 44.2°F6.8°C 36.1°F2.3°C 73% Calm Calm 1.0 mph1.6 kmh 29.70 in1005.8 mb 0.00 in0.0 mm 0.00 in0.0 mm 0.00 in0.0 mm
03:30 AM 43.8°F6.6°C 36.0°F2.2°C 74% Calm Calm -- 29.70 in1005.8 mb 0.00 in0.0 mm 0.00 in0.0 mm 0.00 in0.0 mm
03:25 AM 43.4°F6.3°C 36.3°F2.4°C 76% Calm Calm -- 29.70 in1005.8 mb 0.00 in0.0 mm 0.00 in0.0 mm 0.00 in0.0 mm
03:20 AM 42.9°F6.1°C 36.1°F2.3°C 77% Calm Calm 1.0 mph1.6 kmh 29.71 in1006.1 mb 0.00 in0.0 mm 0.00 in0.0 mm 0.00 in0.0 mm
03:15 AM 42.4°F5.8°C 35.7°F2.1°C 77% 1.0 mph WNW1.6 kmh WNW 1.0 mph1.6 kmh 29.71 in1006.1 mb 0.00 in0.0 mm 0.00 in0.0 mm 0.00 in0.0 mm
03:10 AM 42.3°F5.7°C 35.9°F2.2°C 78% Calm Calm 1.0 mph1.6 kmh 29.71 in1006.1 mb 0.00 in0.0 mm 0.00 in0.0 mm 0.00 in0.0 mm
03:05 AM 42.2°F5.7°C 35.8°F2.1°C 78% Calm Calm 1.0 mph1.6 kmh 29.71 in1006.1 mb 0.00 in0.0 mm 0.00 in0.0 mm 0.00 in0.0 mm
03:00 AM 42.1°F5.6°C 35.7°F2.1°C 78% 1.0 mph WNW1.6 kmh WNW 1.0 mph1.6 kmh 29.71 in1006.1 mb 0.00 in0.0 mm 0.00 in0.0 mm 0.00 in0.0 mm
02:55 AM 42.0°F5.6°C 35.6°F2.0°C 78% Calm Calm 1.0 mph1.6 kmh 29.71 in1006.1 mb 0.00 in0.0 mm 0.00 in0.0 mm 0.00 in0.0 mm
02:50 AM 42.1°F5.6°C 35.7°F2.1°C 78% Calm Calm 1.0 mph1.6 kmh 29.71 in1006.1 mb 0.00 in0.0 mm 0.00 in0.0 mm 0.00 in0.0 mm
02:45 AM 42.1°F5.6°C 35.7°F2.1°C 78% Calm Calm 2.0 mph3.2 kmh 29.71 in1006.1 mb 0.00 in0.0 mm 0.00 in0.0 mm 0.00 in0.0 mm
02:40 AM 42.1°F5.6°C 35.7°F2.1°C 78% Calm Calm -- 29.71 in1006.1 mb 0.00 in0.0 mm 0.00 in0.0 mm 0.00 in0.0 mm
02:35 AM 42.2°F5.7°C 35.5°F1.9°C 77% Calm Calm 1.0 mph1.6 kmh 29.72 in1006.4 mb 0.00 in0.0 mm 0.00 in0.0 mm 0.00 in0.0 mm
02:30 AM 42.3°F5.7°C 35.9°F2.2°C 78% 1.0 mph WNW1.6 kmh WNW 5.0 mph8.0 kmh 29.71 in1006.1 mb 0.00 in0.0 mm 0.00 in0.0 mm 0.00 in0.0 mm
02:25 AM 42.1°F5.6°C 35.7°F2.1°C 78% 3.0 mph NE4.8 kmh NE 5.0 mph8.0 kmh 29.71 in1006.1 mb 0.00 in0.0 mm 0.00 in0.0 mm 0.00 in0.0 mm
02:20 AM 42.1°F5.6°C 35.4°F1.9°C 77% Calm Calm 2.0 mph3.2 kmh 29.72 in1006.4 mb 0.00 in0.0 mm 0.00 in0.0 mm 0.00 in0.0 mm
02:15 AM 42.2°F5.7°C 35.5°F1.9°C 77% Calm Calm 2.0 mph3.2 kmh 29.72 in1006.4 mb 0.00 in0.0 mm 0.00 in0.0 mm 0.00 in0.0 mm
02:10 AM 42.3°F5.7°C 35.6°F2.0°C 77% Calm Calm 1.0 mph1.6 kmh 29.73 in1006.8 mb 0.00 in0.0 mm 0.00 in0.0 mm 0.00 in0.0 mm
02:05 AM 42.4°F5.8°C 35.7°F2.1°C 77% Calm Calm 2.0 mph3.2 kmh 29.73 in1006.8 mb 0.00 in0.0 mm 0.00 in0.0 mm 0.00 in0.0 mm
02:00 AM 42.4°F5.8°C 35.7°F2.1°C 77% Calm Calm 3.0 mph4.8 kmh 29.73 in1006.8 mb 0.00 in0.0 mm 0.00 in0.0 mm 0.00 in0.0 mm
01:55 AM 42.3°F5.7°C 35.6°F2.0°C 77% 2.0 mph WNW3.2 kmh WNW 3.0 mph4.8 kmh 29.73 in1006.8 mb 0.00 in0.0 mm 0.00 in0.0 mm 0.00 in0.0 mm
01:50 AM 42.2°F5.7°C 35.1°F1.7°C 76% 1.0 mph WNW1.6 kmh WNW 2.0 mph3.2 kmh 29.73 in1006.8 mb 0.00 in0.0 mm 0.00 in0.0 mm 0.00 in0.0 mm
01:45 AM 42.3°F5.7°C 35.2°F1.8°C 76% Calm Calm 2.0 mph3.2 kmh 29.73 in1006.8 mb 0.00 in0.0 mm 0.00 in0.0 mm 0.00 in0.0 mm
01:40 AM 42.3°F5.7°C 35.2°F1.8°C 76% 1.0 mph WNW1.6 kmh WNW 2.0 mph3.2 kmh 29.73 in1006.8 mb 0.00 in0.0 mm 0.00 in0.0 mm 0.00 in0.0 mm
01:35 AM 42.2°F5.7°C 35.1°F1.7°C 76% Calm Calm 3.0 mph4.8 kmh 29.73 in1006.8 mb 0.00 in0.0 mm 0.00 in0.0 mm 0.00 in0.0 mm
01:30 AM 42.0°F5.6°C 34.9°F1.6°C 76% 2.0 mph NW3.2 kmh NW 3.0 mph4.8 kmh 29.73 in1006.8 mb 0.00 in0.0 mm 0.00 in0.0 mm 0.00 in0.0 mm
01:25 AM 42.1°F5.6°C 34.7°F1.5°C 75% 1.0 mph NW1.6 kmh NW 1.0 mph1.6 kmh 29.73 in1006.8 mb 0.00 in0.0 mm 0.00 in0.0 mm 0.00 in0.0 mm
01:20 AM 42.2°F5.7°C 34.8°F1.6°C 75% Calm Calm 2.0 mph3.2 kmh 29.73 in1006.8 mb 0.00 in0.0 mm 0.00 in0.0 mm 0.00 in0.0 mm
01:15 AM 42.2°F5.7°C 35.1°F1.7°C 76% 2.0 mph NW3.2 kmh NW 3.0 mph4.8 kmh 29.73 in1006.8 mb 0.00 in0.0 mm 0.00 in0.0 mm 0.00 in0.0 mm
01:10 AM 42.1°F5.6°C 35.0°F1.7°C 76% 1.0 mph NW1.6 kmh NW 2.0 mph3.2 kmh 29.74 in1007.1 mb 0.00 in0.0 mm 0.00 in0.0 mm 0.00 in0.0 mm
01:05 AM 42.0°F5.6°C 34.9°F1.6°C 76% 1.0 mph NW1.6 kmh NW 3.0 mph4.8 kmh 29.74 in1007.1 mb 0.00 in0.0 mm 0.00 in0.0 mm 0.00 in0.0 mm
01:00 AM 42.0°F5.6°C 34.6°F1.4°C 75% 1.0 mph NW1.6 kmh NW 3.0 mph4.8 kmh 29.74 in1007.1 mb 0.00 in0.0 mm 0.00 in0.0 mm 0.00 in0.0 mm
12:55 AM 42.1°F5.6°C 34.7°F1.5°C 75% Calm Calm 4.0 mph6.4 kmh 29.74 in1007.1 mb 0.00 in0.0 mm 0.00 in0.0 mm 0.00 in0.0 mm
12:50 AM 42.1°F5.6°C 34.7°F1.5°C 75% 2.0 mph NNW3.2 kmh NNW 3.0 mph4.8 kmh 29.74 in1007.1 mb 0.00 in0.0 mm 0.00 in0.0 mm 0.00 in0.0 mm
12:45 AM 42.2°F5.7°C 34.5°F1.4°C 74% 1.0 mph NNW1.6 kmh NNW 3.0 mph4.8 kmh 29.74 in1007.1 mb 0.00 in0.0 mm 0.00 in0.0 mm 0.00 in0.0 mm
12:40 AM 42.2°F5.7°C 34.5°F1.4°C 74% 2.0 mph NNW3.2 kmh NNW 4.0 mph6.4 kmh 29.74 in1007.1 mb 0.00 in0.0 mm 0.00 in0.0 mm 0.00 in0.0 mm
12:35 AM 42.3°F5.7°C 34.2°F1.2°C 73% 1.0 mph NW1.6 kmh NW 5.0 mph8.0 kmh 29.74 in1007.1 mb 0.00 in0.0 mm 0.00 in0.0 mm 0.00 in0.0 mm
12:30 AM 42.4°F5.8°C 34.3°F1.3°C 73% 3.0 mph NW4.8 kmh NW 6.0 mph9.7 kmh 29.74 in1007.1 mb 0.00 in0.0 mm 0.00 in0.0 mm 0.00 in0.0 mm
12:25 AM 42.5°F5.8°C 34.4°F1.3°C 73% 3.0 mph NW4.8 kmh NW 5.0 mph8.0 kmh 29.74 in1007.1 mb 0.00 in0.0 mm 0.00 in0.0 mm 0.00 in0.0 mm
12:20 AM 42.7°F5.9°C 34.3°F1.3°C 72% 3.0 mph NW4.8 kmh NW 6.0 mph9.7 kmh 29.75 in1007.5 mb 0.00 in0.0 mm 0.00 in0.0 mm 0.00 in0.0 mm
12:15 AM 42.8°F6.0°C 34.4°F1.3°C 72% 1.0 mph NW1.6 kmh NW 6.0 mph9.7 kmh 29.75 in1007.5 mb 0.00 in0.0 mm 0.00 in0.0 mm 0.00 in0.0 mm
12:10 AM 42.9°F6.1°C 34.1°F1.2°C 71% 4.0 mph NW6.4 kmh NW 6.0 mph9.7 kmh 29.75 in1007.5 mb 0.00 in0.0 mm 0.00 in0.0 mm 0.00 in0.0 mm
12:05 AM 43.0°F6.1°C 34.2°F1.2°C 71% 1.0 mph NW1.6 kmh NW 8.0 mph12.9 kmh 29.75 in1007.5 mb 0.00 in0.0 mm 0.00 in0.0 mm 0.00 in0.0 mm
12:00 AM 43.0°F6.1°C 34.2°F1.2°C 71% 3.0 mph NW4.8 kmh NW 5.0 mph8.0 kmh 29.75 in1007.5 mb 0.00 in0.0 mm 0.00 in0.0 mm 0.00 in0.0 mm